Arlon, Belgium
Current Conditions -  °F | °C
As of 4:20 PM on Sunday 28 Dec 2014 (Local Time) from ELLX Reporting Station
Clear Clear  
Wind Chill: 15°   Ceiling: Unl
Heat Index: 25°   Visibility: 6mi
Dew Point: 14°   Wind: 10mph
Humidity: 64%   Direction: 20°NNE
Pressure: 30.27"   Gusts: NA
Location:  49.68°N, 5.82°E
Report Text: ELLX 281520Z 02009KT CAVOK M04/M10 Q1025 NOSIG
Loading
Personal Weather Stations






























Interactive Weather Map New forecast layout! Learn more

10-Day Weather Forecast

Advertisements
Track Severe Weather on mobile